sensor_id;sensor_type;location;lat;lon;timestamp;pressure;altitude;pressure_sealevel;temperature;humidity
65997;BME280;52765;52.258;21.052;2023-03-19T00:01:55;100818.91;;;6.95;50.29
65997;BME280;52765;52.258;21.052;2023-03-19T00:04:22;100819.03;;;6.94;50.29
65997;BME280;52765;52.258;21.052;2023-03-19T00:06:48;100810.50;;;6.89;50.35
65997;BME280;52765;52.258;21.052;2023-03-19T00:09:14;100812.59;;;6.85;50.60
65997;BME280;52765;52.258;21.052;2023-03-19T00:11:40;100802.22;;;6.80;50.68
65997;BME280;52765;52.258;21.052;2023-03-19T00:14:06;100810.88;;;6.84;50.38
65997;BME280;52765;52.258;21.052;2023-03-19T00:16:32;100802.72;;;6.85;50.53
65997;BME280;52765;52.258;21.052;2023-03-19T00:18:58;100806.50;;;6.83;50.61
65997;BME280;52765;52.258;21.052;2023-03-19T00:21:23;100806.38;;;6.84;50.47
65997;BME280;52765;52.258;21.052;2023-03-19T00:23:49;100805.38;;;6.85;50.75
65997;BME280;52765;52.258;21.052;2023-03-19T00:26:15;100798.94;;;6.88;50.44
65997;BME280;52765;52.258;21.052;2023-03-19T00:28:40;100796.41;;;6.87;50.61
65997;BME280;52765;52.258;21.052;2023-03-19T00:31:11;100791.28;;;6.83;50.40
65997;BME280;52765;52.258;21.052;2023-03-19T00:33:37;100801.16;;;6.83;50.85
65997;BME280;52765;52.258;21.052;2023-03-19T00:36:03;100797.13;;;6.77;50.93
65997;BME280;52765;52.258;21.052;2023-03-19T00:38:30;100797.47;;;6.73;50.90
65997;BME280;52765;52.258;21.052;2023-03-19T00:40:56;100803.94;;;6.70;50.70
65997;BME280;52765;52.258;21.052;2023-03-19T00:43:21;100797.25;;;6.64;50.79
65997;BME280;52765;52.258;21.052;2023-03-19T00:45:47;100798.56;;;6.59;51.12
65997;BME280;52765;52.258;21.052;2023-03-19T00:48:13;100800.16;;;6.61;51.22
65997;BME280;52765;52.258;21.052;2023-03-19T00:50:38;100797.97;;;6.55;50.99
65997;BME280;52765;52.258;21.052;2023-03-19T00:53:04;100795.03;;;6.58;51.06
65997;BME280;52765;52.258;21.052;2023-03-19T00:55:30;100792.34;;;6.47;51.31
65997;BME280;52765;52.258;21.052;2023-03-19T00:57:55;100787.84;;;6.47;51.37
65997;BME280;52765;52.258;21.052;2023-03-19T01:00:21;100792.22;;;6.48;51.46
65997;BME280;52765;52.258;21.052;2023-03-19T01:02:46;100788.31;;;6.53;51.66
65997;BME280;52765;52.258;21.052;2023-03-19T01:05:12;100789.44;;;6.50;51.64
65997;BME280;52765;52.258;21.052;2023-03-19T01:07:38;100795.16;;;6.57;51.88
65997;BME280;52765;52.258;21.052;2023-03-19T01:10:03;100785.78;;;6.62;51.80
65997;BME280;52765;52.258;21.052;2023-03-19T01:12:29;100799.16;;;6.62;51.47
65997;BME280;52765;52.258;21.052;2023-03-19T01:14:54;100789.31;;;6.52;51.96
65997;BME280;52765;52.258;21.052;2023-03-19T01:17:20;100789.44;;;6.50;51.81
65997;BME280;52765;52.258;21.052;2023-03-19T01:19:45;100788.94;;;6.45;52.12
65997;BME280;52765;52.258;21.052;2023-03-19T01:22:11;100801.09;;;6.49;51.80
65997;BME280;52765;52.258;21.052;2023-03-19T01:24:38;100798.53;;;6.47;52.17
65997;BME280;52765;52.258;21.052;2023-03-19T01:27:03;100791.38;;;6.48;52.02
65997;BME280;52765;52.258;21.052;2023-03-19T01:29:30;100804.00;;;6.46;52.21
65997;BME280;52765;52.258;21.052;2023-03-19T01:31:56;100804.28;;;6.43;52.26
65997;BME280;52765;52.258;21.052;2023-03-19T01:34:22;100803.53;;;6.41;52.32
65997;BME280;52765;52.258;21.052;2023-03-19T01:36:47;100816.63;;;6.33;52.86
65997;BME280;52765;52.258;21.052;2023-03-19T01:39:13;100809.94;;;6.27;53.06
65997;BME280;52765;52.258;21.052;2023-03-19T01:41:38;100806.53;;;6.25;53.29
65997;BME280;52765;52.258;21.052;2023-03-19T01:44:39;100810.78;;;6.27;53.10
65997;BME280;52765;52.258;21.052;2023-03-19T01:49:46;100808.09;;;6.16;53.50
65997;BME280;52765;52.258;21.052;2023-03-19T01:52:19;100807.34;;;6.14;53.59
65997;BME280;52765;52.258;21.052;2023-03-19T01:54:47;100817.19;;;6.14;53.54
65997;BME280;52765;52.258;21.052;2023-03-19T01:57:15;100798.22;;;6.05;53.71
65997;BME280;52765;52.258;21.052;2023-03-19T01:59:47;100803.34;;;6.08;53.63
65997;BME280;52765;52.258;21.052;2023-03-19T02:02:31;100811.59;;;6.05;53.86
65997;BME280;52765;52.258;21.052;2023-03-19T02:05:02;100804.50;;;6.04;54.30
65997;BME280;52765;52.258;21.052;2023-03-19T02:07:31;100795.03;;;6.00;54.20
65997;BME280;52765;52.258;21.052;2023-03-19T02:10:00;100804.28;;;6.07;53.88
65997;BME280;52765;52.258;21.052;2023-03-19T02:12:26;100798.31;;;6.04;54.04
65997;BME280;52765;52.258;21.052;2023-03-19T02:14:52;100804.28;;;6.07;54.24
65997;BME280;52765;52.258;21.052;2023-03-19T02:17:19;100813.03;;;6.09;53.87
65997;BME280;52765;52.258;21.052;2023-03-19T02:19:49;100797.38;;;6.05;54.29
65997;BME280;52765;52.258;21.052;2023-03-19T02:22:22;100799.66;;;6.09;54.08
65997;BME280;52765;52.258;21.052;2023-03-19T02:24:56;100796.03;;;6.10;54.12
65997;BME280;52765;52.258;21.052;2023-03-19T02:27:24;100786.56;;;6.06;54.37
65997;BME280;52765;52.258;21.052;2023-03-19T02:29:49;100795.53;;;6.05;54.44
65997;BME280;52765;52.258;21.052;2023-03-19T02:32:14;100790.06;;;6.07;54.33
65997;BME280;52765;52.258;21.052;2023-03-19T02:34:41;100791.91;;;6.06;54.38
65997;BME280;52765;52.258;21.052;2023-03-19T02:37:28;100799.94;;;6.06;54.70
65997;BME280;52765;52.258;21.052;2023-03-19T02:40:01;100791.91;;;6.06;54.70
65997;BME280;52765;52.258;21.052;2023-03-19T02:42:29;100803.16;;;5.99;54.94
65997;BME280;52765;52.258;21.052;2023-03-19T02:44:55;100813.44;;;5.92;55.04
65997;BME280;52765;52.258;21.052;2023-03-19T02:47:21;100813.22;;;5.95;54.99
65997;BME280;52765;52.258;21.052;2023-03-19T02:49:46;100818.50;;;5.97;55.07
65997;BME280;52765;52.258;21.052;2023-03-19T02:52:12;100806.03;;;5.96;55.08
65997;BME280;52765;52.258;21.052;2023-03-19T02:54:37;100814.81;;;5.98;55.02
65997;BME280;52765;52.258;21.052;2023-03-19T02:57:03;100814.41;;;5.91;55.42
65997;BME280;52765;52.258;21.052;2023-03-19T02:59:28;100803.09;;;5.87;55.79
65997;BME280;52765;52.258;21.052;2023-03-19T03:01:54;100809.75;;;5.82;55.49
65997;BME280;52765;52.258;21.052;2023-03-19T03:04:20;100809.75;;;5.82;55.94
65997;BME280;52765;52.258;21.052;2023-03-19T03:06:45;100804.63;;;5.79;55.45
65997;BME280;52765;52.258;21.052;2023-03-19T03:09:12;100822.03;;;5.84;55.62
65997;BME280;52765;52.258;21.052;2023-03-19T03:11:38;100822.00;;;5.73;55.91
65997;BME280;52765;52.258;21.052;2023-03-19T03:14:05;100807.75;;;5.72;56.15
65997;BME280;52765;52.258;21.052;2023-03-19T03:16:30;100814.22;;;5.70;56.16
65997;BME280;52765;52.258;21.052;2023-03-19T03:18:57;100810.53;;;5.71;56.32
65997;BME280;52765;52.258;21.052;2023-03-19T03:21:22;100805.97;;;5.73;56.38
65997;BME280;52765;52.258;21.052;2023-03-19T03:23:48;100806.81;;;5.73;56.21
65997;BME280;52765;52.258;21.052;2023-03-19T03:26:14;100805.97;;;5.73;56.35
65997;BME280;52765;52.258;21.052;2023-03-19T03:28:39;100815.16;;;5.69;56.63
65997;BME280;52765;52.258;21.052;2023-03-19T03:31:05;100803.84;;;5.65;56.74
65997;BME280;52765;52.258;21.052;2023-03-19T03:33:36;100808.97;;;5.68;56.74
65997;BME280;52765;52.258;21.052;2023-03-19T03:36:02;100819.88;;;5.65;56.89
65997;BME280;52765;52.258;21.052;2023-03-19T03:38:27;100820.00;;;5.64;57.01
65997;BME280;52765;52.258;21.052;2023-03-19T03:40:53;100807.09;;;5.57;57.45
65997;BME280;52765;52.258;21.052;2023-03-19T03:43:19;100808.69;;;5.60;57.54
65997;BME280;52765;52.258;21.052;2023-03-19T03:45:46;100809.63;;;5.59;57.62
65997;BME280;52765;52.258;21.052;2023-03-19T03:48:15;100809.41;;;5.62;57.30
65997;BME280;52765;52.258;21.052;2023-03-19T03:50:40;100795.66;;;5.55;57.33
65997;BME280;52765;52.258;21.052;2023-03-19T03:53:06;100801.00;;;5.55;57.84
65997;BME280;52765;52.258;21.052;2023-03-19T03:55:31;100795.88;;;5.52;57.44
65997;BME280;52765;52.258;21.052;2023-03-19T03:57:57;100796.22;;;5.48;57.96
65997;BME280;52765;52.258;21.052;2023-03-19T04:00:23;100802.66;;;5.45;58.20
65997;BME280;52765;52.258;21.052;2023-03-19T04:02:49;100798.47;;;5.41;58.44
65997;BME280;52765;52.258;21.052;2023-03-19T04:05:15;100795.81;;;5.41;58.17
65997;BME280;52765;52.258;21.052;2023-03-19T04:07:42;100792.06;;;5.44;58.39
65997;BME280;52765;52.258;21.052;2023-03-19T04:10:08;100798.16;;;5.46;58.19
65997;BME280;52765;52.258;21.052;2023-03-19T04:12:36;100790.13;;;5.46;58.33
65997;BME280;52765;52.258;21.052;2023-03-19T04:15:03;100788.16;;;5.36;58.37
65997;BME280;52765;52.258;21.052;2023-03-19T04:17:29;100791.78;;;5.35;58.75
65997;BME280;52765;52.258;21.052;2023-03-19T04:19:54;100795.28;;;5.36;58.66
65997;BME280;52765;52.258;21.052;2023-03-19T04:22:20;100795.56;;;5.33;58.95
65997;BME280;52765;52.258;21.052;2023-03-19T04:24:46;100792.47;;;5.26;58.79
65997;BME280;52765;52.258;21.052;2023-03-19T04:27:11;100798.34;;;5.31;58.88
65997;BME280;52765;52.258;21.052;2023-03-19T04:29:40;100790.44;;;5.30;59.15
65997;BME280;52765;52.258;21.052;2023-03-19T04:32:05;100784.97;;;5.31;59.12
65997;BME280;52765;52.258;21.052;2023-03-19T04:34:31;100783.88;;;5.34;58.95
65997;BME280;52765;52.258;21.052;2023-03-19T04:36:56;100783.03;;;5.33;59.29
65997;BME280;52765;52.258;21.052;2023-03-19T04:39:23;100783.03;;;5.33;59.10
65997;BME280;52765;52.258;21.052;2023-03-19T04:41:48;100781.53;;;5.29;59.43
65997;BME280;52765;52.258;21.052;2023-03-19T04:44:14;100782.19;;;5.33;59.02
65997;BME280;52765;52.258;21.052;2023-03-19T04:46:40;100786.78;;;5.31;59.42
65997;BME280;52765;52.258;21.052;2023-03-19T04:49:06;100788.38;;;5.33;59.43
65997;BME280;52765;52.258;21.052;2023-03-19T04:51:32;100789.44;;;5.31;59.25
65997;BME280;52765;52.258;21.052;2023-03-19T04:53:58;100790.31;;;5.31;59.26
65997;BME280;52765;52.258;21.052;2023-03-19T04:56:24;100786.38;;;5.24;59.55
65997;BME280;52765;52.258;21.052;2023-03-19T04:58:49;100788.72;;;5.29;59.94
65997;BME280;52765;52.258;21.052;2023-03-19T05:01:15;100787.00;;;5.28;59.62
65997;BME280;52765;52.258;21.052;2023-03-19T05:03:41;100793.44;;;5.25;59.72
65997;BME280;52765;52.258;21.052;2023-03-19T05:06:06;100791.94;;;5.21;60.08
65997;BME280;52765;52.258;21.052;2023-03-19T05:08:32;100786.94;;;5.16;60.20
65997;BME280;52765;52.258;21.052;2023-03-19T05:11:00;100800.00;;;5.08;60.25
65997;BME280;52765;52.258;21.052;2023-03-19T05:13:30;100790.03;;;5.10;60.52
65997;BME280;52765;52.258;21.052;2023-03-19T05:15:55;100795.72;;;5.06;60.65
65997;BME280;52765;52.258;21.052;2023-03-19T05:18:24;100805.88;;;5.00;60.88
65997;BME280;52765;52.258;21.052;2023-03-19T05:20:51;100806.59;;;5.03;60.87
65997;BME280;52765;52.258;21.052;2023-03-19T05:23:17;100799.50;;;4.90;61.25
65997;BME280;52765;52.258;21.052;2023-03-19T05:25:43;100812.84;;;4.90;62.05
65997;BME280;52765;52.258;21.052;2023-03-19T05:28:08;100810.38;;;4.87;62.25
65997;BME280;52765;52.258;21.052;2023-03-19T05:30:34;100808.44;;;4.89;62.17
65997;BME280;52765;52.258;21.052;2023-03-19T05:33:00;100810.28;;;4.89;62.67
65997;BME280;52765;52.258;21.052;2023-03-19T05:35:27;100798.75;;;4.88;62.06
65997;BME280;52765;52.258;21.052;2023-03-19T05:37:54;100820.06;;;5.01;61.79
65997;BME280;52765;52.258;21.052;2023-03-19T05:40:20;100798.81;;;4.99;61.44
65997;BME280;52765;52.258;21.052;2023-03-19T05:42:46;100807.66;;;5.13;61.44
65997;BME280;52765;52.258;21.052;2023-03-19T05:45:11;100800.19;;;5.18;60.95
65997;BME280;52765;52.258;21.052;2023-03-19T05:47:37;100811.91;;;5.28;60.49
65997;BME280;52765;52.258;21.052;2023-03-19T05:50:04;100806.09;;;5.34;59.76
65997;BME280;52765;52.258;21.052;2023-03-19T05:52:30;100807.03;;;5.46;59.48
65997;BME280;52765;52.258;21.052;2023-03-19T05:54:56;100807.88;;;5.47;59.65
65997;BME280;52765;52.258;21.052;2023-03-19T05:57:22;100810.84;;;5.55;59.35
65997;BME280;52765;52.258;21.052;2023-03-19T05:59:47;100814.66;;;5.64;58.65
65997;BME280;52765;52.258;21.052;2023-03-19T06:02:12;100819.16;;;5.63;58.41
65997;BME280;52765;52.258;21.052;2023-03-19T06:04:38;100816.25;;;5.66;58.18
65997;BME280;52765;52.258;21.052;2023-03-19T06:07:03;100815.06;;;5.70;57.79
65997;BME280;52765;52.258;21.052;2023-03-19T06:09:29;100804.75;;;5.77;57.26
65997;BME280;52765;52.258;21.052;2023-03-19T06:11:54;100817.19;;;5.89;56.79
65997;BME280;52765;52.258;21.052;2023-03-19T06:14:20;100810.47;;;5.97;57.06
65997;BME280;52765;52.258;21.052;2023-03-19T06:16:46;100820.69;;;6.03;56.71
65997;BME280;52765;52.258;21.052;2023-03-19T06:19:11;100814.38;;;6.04;56.65
65997;BME280;52765;52.258;21.052;2023-03-19T06:21:37;100813.91;;;6.10;56.63
65997;BME280;52765;52.258;21.052;2023-03-19T06:24:02;100816.38;;;6.13;56.86
65997;BME280;52765;52.258;21.052;2023-03-19T06:26:28;100816.47;;;6.11;56.75
65997;BME280;52765;52.258;21.052;2023-03-19T06:28:53;100823.41;;;6.14;56.54
65997;BME280;52765;52.258;21.052;2023-03-19T06:31:19;100831.81;;;6.21;56.20
65997;BME280;52765;52.258;21.052;2023-03-19T06:33:45;100826.34;;;6.22;55.97
65997;BME280;52765;52.258;21.052;2023-03-19T06:36:10;100823.94;;;6.30;56.13
65997;BME280;52765;52.258;21.052;2023-03-19T06:38:36;100824.09;;;6.40;55.86
65997;BME280;52765;52.258;21.052;2023-03-19T06:41:02;100823.88;;;6.55;55.13
65997;BME280;52765;52.258;21.052;2023-03-19T06:43:28;100822.53;;;6.60;55.27
65997;BME280;52765;52.258;21.052;2023-03-19T06:45:53;100821.31;;;6.76;54.57
65997;BME280;52765;52.258;21.052;2023-03-19T06:48:19;100822.06;;;6.89;54.47
65997;BME280;52765;52.258;21.052;2023-03-19T06:50:45;100818.66;;;6.98;54.25
65997;BME280;52765;52.258;21.052;2023-03-19T06:53:11;100823.16;;;7.09;53.83
65997;BME280;52765;52.258;21.052;2023-03-19T06:55:37;100827.78;;;7.18;53.54
65997;BME280;52765;52.258;21.052;2023-03-19T06:58:02;100829.88;;;7.26;53.41
65997;BME280;52765;52.258;21.052;2023-03-19T07:00:29;100824.34;;;7.39;53.03
65997;BME280;52765;52.258;21.052;2023-03-19T07:02:55;100827.72;;;7.52;52.80
65997;BME280;52765;52.258;21.052;2023-03-19T07:05:20;100823.66;;;7.69;52.30
65997;BME280;52765;52.258;21.052;2023-03-19T07:07:46;100827.09;;;7.71;52.12
65997;BME280;52765;52.258;21.052;2023-03-19T07:10:11;100821.94;;;7.80;51.97
65997;BME280;52765;52.258;21.052;2023-03-19T07:12:37;100823.47;;;7.93;51.45
65997;BME280;52765;52.258;21.052;2023-03-19T07:15:02;100830.06;;;7.89;51.63
65997;BME280;52765;52.258;21.052;2023-03-19T07:17:29;100822.63;;;7.93;51.52
65997;BME280;52765;52.258;21.052;2023-03-19T07:19:54;100832.00;;;7.87;51.48
65997;BME280;52765;52.258;21.052;2023-03-19T07:22:19;100828.47;;;7.87;51.45
65997;BME280;52765;52.258;21.052;2023-03-19T07:24:45;100830.91;;;7.90;51.48
65997;BME280;52765;52.258;21.052;2023-03-19T07:27:11;100836.16;;;7.91;51.76
65997;BME280;52765;52.258;21.052;2023-03-19T07:29:36;100840.88;;;7.99;51.45
65997;BME280;52765;52.258;21.052;2023-03-19T07:32:02;100840.75;;;8.01;51.57
65997;BME280;52765;52.258;21.052;2023-03-19T07:34:28;100837.69;;;8.05;51.14
65997;BME280;52765;52.258;21.052;2023-03-19T07:36:53;100830.28;;;8.19;50.86
65997;BME280;52765;52.258;21.052;2023-03-19T07:39:19;100823.03;;;8.30;50.50
65997;BME280;52765;52.258;21.052;2023-03-19T07:41:45;100833.09;;;8.49;50.28
65997;BME280;52765;52.258;21.052;2023-03-19T07:44:13;100831.63;;;8.66;49.88
65997;BME280;52765;52.258;21.052;2023-03-19T07:46:38;100831.28;;;8.81;49.67
65997;BME280;52765;52.258;21.052;2023-03-19T07:49:04;100824.97;;;8.92;49.16
65997;BME280;52765;52.258;21.052;2023-03-19T07:51:30;100830.00;;;9.16;49.17
65997;BME280;52765;52.258;21.052;2023-03-19T07:53:55;100834.31;;;9.28;48.24
65997;BME280;52765;52.258;21.052;2023-03-19T07:56:20;100821.47;;;9.41;48.32
65997;BME280;52765;52.258;21.052;2023-03-19T07:58:46;100823.63;;;9.57;47.61
65997;BME280;52765;52.258;21.052;2023-03-19T08:01:11;100824.38;;;9.69;47.56
65997;BME280;52765;52.258;21.052;2023-03-19T08:03:37;100821.81;;;9.77;47.16
65997;BME280;52765;52.258;21.052;2023-03-19T08:06:03;100827.78;;;9.81;46.62
65997;BME280;52765;52.258;21.052;2023-03-19T08:08:28;100825.50;;;9.86;46.82
65997;BME280;52765;52.258;21.052;2023-03-19T08:10:54;100819.84;;;9.79;46.88
65997;BME280;52765;52.258;21.052;2023-03-19T08:13:20;100818.56;;;9.93;46.60
65997;BME280;52765;52.258;21.052;2023-03-19T08:15:48;100823.41;;;10.09;46.92
65997;BME280;52765;52.258;21.052;2023-03-19T08:18:14;100816.56;;;10.25;46.35
65997;BME280;52765;52.258;21.052;2023-03-19T08:20:39;100819.56;;;10.51;45.88
65997;BME280;52765;52.258;21.052;2023-03-19T08:23:05;100816.25;;;10.57;45.63
65997;BME280;52765;52.258;21.052;2023-03-19T08:25:30;100821.75;;;10.65;45.71
65997;BME280;52765;52.258;21.052;2023-03-19T08:27:59;100814.06;;;10.80;45.52
65997;BME280;52765;52.258;21.052;2023-03-19T08:30:25;100828.47;;;10.99;44.90
65997;BME280;52765;52.258;21.052;2023-03-19T08:32:50;100813.97;;;11.09;44.80
65997;BME280;52765;52.258;21.052;2023-03-19T08:35:17;100815.75;;;11.19;44.18
65997;BME280;52765;52.258;21.052;2023-03-19T08:37:43;100813.59;;;11.22;43.94
65997;BME280;52765;52.258;21.052;2023-03-19T08:40:09;100815.16;;;11.25;44.02
65997;BME280;52765;52.258;21.052;2023-03-19T08:42:37;100812.72;;;11.32;44.04
65997;BME280;52765;52.258;21.052;2023-03-19T08:45:10;100808.88;;;11.34;43.99
65997;BME280;52765;52.258;21.052;2023-03-19T08:47:36;100810.09;;;11.40;44.17
65997;BME280;52765;52.258;21.052;2023-03-19T08:50:02;100810.19;;;11.48;43.75
65997;BME280;52765;52.258;21.052;2023-03-19T08:52:30;100819.63;;;11.62;43.48
65997;BME280;52765;52.258;21.052;2023-03-19T08:54:56;100816.78;;;11.63;43.70
65997;BME280;52765;52.258;21.052;2023-03-19T08:57:21;100822.47;;;11.60;43.38
65997;BME280;52765;52.258;21.052;2023-03-19T08:59:47;100817.22;;;11.59;43.36
65997;BME280;52765;52.258;21.052;2023-03-19T09:02:12;100811.53;;;11.62;43.54
65997;BME280;52765;52.258;21.052;2023-03-19T09:04:44;100814.84;;;11.74;43.61
65997;BME280;52765;52.258;21.052;2023-03-19T09:07:10;100802.16;;;11.84;43.20
65997;BME280;52765;52.258;21.052;2023-03-19T09:09:38;100808.44;;;12.02;43.14
65997;BME280;52765;52.258;21.052;2023-03-19T09:12:04;100808.66;;;12.09;43.11
65997;BME280;52765;52.258;21.052;2023-03-19T09:14:31;100806.78;;;12.10;43.08
65997;BME280;52765;52.258;21.052;2023-03-19T09:16:57;100817.44;;;12.11;43.23
65997;BME280;52765;52.258;21.052;2023-03-19T09:19:22;100810.84;;;12.14;43.38
65997;BME280;52765;52.258;21.052;2023-03-19T09:21:48;100811.56;;;12.16;43.48
65997;BME280;52765;52.258;21.052;2023-03-19T09:24:14;100808.22;;;12.22;43.41
65997;BME280;52765;52.258;21.052;2023-03-19T09:26:40;100810.31;;;12.28;43.20
65997;BME280;52765;52.258;21.052;2023-03-19T09:29:05;100807.53;;;12.38;42.97
65997;BME280;52765;52.258;21.052;2023-03-19T09:31:31;100805.09;;;12.53;42.85
65997;BME280;52765;52.258;21.052;2023-03-19T09:33:56;100799.63;;;12.71;42.61
65997;BME280;52765;52.258;21.052;2023-03-19T09:36:22;100796.31;;;12.85;42.50
65997;BME280;52765;52.258;21.052;2023-03-19T09:38:47;100792.88;;;13.01;42.36
65997;BME280;52765;52.258;21.052;2023-03-19T09:41:41;100794.28;;;13.22;42.07
65997;BME280;52765;52.258;21.052;2023-03-19T09:44:31;100782.66;;;13.29;41.78
65997;BME280;52765;52.258;21.052;2023-03-19T09:49:33;100798.59;;;13.32;41.77
65997;BME280;52765;52.258;21.052;2023-03-19T09:52:18;100786.38;;;13.28;41.85
65997;BME280;52765;52.258;21.052;2023-03-19T09:54:55;100790.25;;;13.26;41.91
65997;BME280;52765;52.258;21.052;2023-03-19T09:57:22;100781.13;;;13.27;42.06
65997;BME280;52765;52.258;21.052;2023-03-19T09:59:48;100787.22;;;13.21;41.76
65997;BME280;52765;52.258;21.052;2023-03-19T10:02:37;100779.78;;;13.23;41.81
65997;BME280;52765;52.258;21.052;2023-03-19T10:05:25;100774.53;;;13.29;41.58
65997;BME280;52765;52.258;21.052;2023-03-19T10:10:45;100778.69;;;13.50;41.50
65997;BME280;52765;52.258;21.052;2023-03-19T10:13:18;100779.53;;;13.59;41.49
65997;BME280;52765;52.258;21.052;2023-03-19T10:15:49;100771.59;;;13.65;41.36
65997;BME280;52765;52.258;21.052;2023-03-19T10:20:50;100783.97;;;13.68;40.93
65997;BME280;52765;52.258;21.052;2023-03-19T10:23:43;100777.56;;;13.69;40.96
65997;BME280;52765;52.258;21.052;2023-03-19T10:26:14;100777.19;;;13.72;41.01
65997;BME280;52765;52.258;21.052;2023-03-19T10:28:42;100776.88;;;13.75;40.92
65997;BME280;52765;52.258;21.052;2023-03-19T10:31:27;100775.38;;;13.81;40.95
65997;BME280;52765;52.258;21.052;2023-03-19T10:36:35;100768.44;;;14.03;40.51
65997;BME280;52765;52.258;21.052;2023-03-19T10:39:02;100774.19;;;14.16;40.50
65997;BME280;52765;52.258;21.052;2023-03-19T10:44:42;100770.44;;;14.34;39.28
65997;BME280;52765;52.258;21.052;2023-03-19T10:47:15;100786.84;;;14.40;39.19
65997;BME280;52765;52.258;21.052;2023-03-19T10:49:42;100773.81;;;14.52;39.15
65997;BME280;52765;52.258;21.052;2023-03-19T10:52:27;100787.16;;;14.70;38.61
65997;BME280;52765;52.258;21.052;2023-03-19T10:54:56;100777.84;;;14.81;38.39
65997;BME280;52765;52.258;21.052;2023-03-19T10:57:27;100767.72;;;15.06;37.51
65997;BME280;52765;52.258;21.052;2023-03-19T10:59:53;100764.88;;;15.39;37.36
65997;BME280;52765;52.258;21.052;2023-03-19T11:02:24;100760.97;;;15.65;36.91
65997;BME280;52765;52.258;21.052;2023-03-19T11:05:06;100762.56;;;16.05;36.66
65997;BME280;52765;52.258;21.052;2023-03-19T11:07:34;100761.63;;;16.13;36.48
65997;BME280;52765;52.258;21.052;2023-03-19T11:10:00;100765.19;;;16.14;35.86
65997;BME280;52765;52.258;21.052;2023-03-19T11:12:31;100762.88;;;16.11;36.25
65997;BME280;52765;52.258;21.052;2023-03-19T11:14:58;100767.13;;;16.05;36.26
65997;BME280;52765;52.258;21.052;2023-03-19T11:17:27;100746.88;;;15.93;36.33
65997;BME280;52765;52.258;21.052;2023-03-19T11:20:18;100749.72;;;15.99;36.73
65997;BME280;52765;52.258;21.052;2023-03-19T11:22:44;100736.13;;;15.99;36.63
65997;BME280;52765;52.258;21.052;2023-03-19T11:25:28;100723.03;;;16.18;36.52
65997;BME280;52765;52.258;21.052;2023-03-19T11:27:59;100730.09;;;16.27;36.00
65997;BME280;52765;52.258;21.052;2023-03-19T11:30:30;100714.25;;;16.31;35.88
65997;BME280;52765;52.258;21.052;2023-03-19T11:36:11;100721.09;;;16.41;35.65
65997;BME280;52765;52.258;21.052;2023-03-19T11:41:52;100708.25;;;16.35;35.93
65997;BME280;52765;52.258;21.052;2023-03-19T11:44:25;100711.25;;;16.25;36.09
65997;BME280;52765;52.258;21.052;2023-03-19T11:47:14;100708.94;;;15.99;36.42
65997;BME280;52765;52.258;21.052;2023-03-19T11:50:02;100705.41;;;15.99;36.47
65997;BME280;52765;52.258;21.052;2023-03-19T11:52:40;100706.53;;;16.04;36.61
65997;BME280;52765;52.258;21.052;2023-03-19T11:58:29;100701.38;;;16.09;36.32
65997;BME280;52765;52.258;21.052;2023-03-19T12:12:40;100704.22;;;16.31;35.97
65997;BME280;52765;52.258;21.052;2023-03-19T12:15:32;100694.97;;;16.40;35.85
65997;BME280;52765;52.258;21.052;2023-03-19T12:20:55;100696.63;;;16.56;35.35
65997;BME280;52765;52.258;21.052;2023-03-19T12:29:15;100690.34;;;16.26;35.66
65997;BME280;52765;52.258;21.052;2023-03-19T12:34:32;100677.41;;;16.28;35.49
65997;BME280;52765;52.258;21.052;2023-03-19T12:37:27;100683.78;;;16.50;35.07
65997;BME280;52765;52.258;21.052;2023-03-19T12:42:40;100684.75;;;16.87;34.36
65997;BME280;52765;52.258;21.052;2023-03-19T12:48:01;100681.06;;;17.31;33.96
65997;BME280;52765;52.258;21.052;2023-03-19T12:50:30;100679.16;;;17.32;33.42
65997;BME280;52765;52.258;21.052;2023-03-19T12:52:59;100683.16;;;17.14;33.71
65997;BME280;52765;52.258;21.052;2023-03-19T12:55:47;100681.03;;;17.10;33.99
65997;BME280;52765;52.258;21.052;2023-03-19T13:08:44;100665.28;;;17.91;32.87
65997;BME280;52765;52.258;21.052;2023-03-19T13:11:34;100664.91;;;17.94;32.68
65997;BME280;52765;52.258;21.052;2023-03-19T13:14:13;100664.50;;;17.76;32.63
65997;BME280;52765;52.258;21.052;2023-03-19T13:19:47;100653.56;;;17.26;32.91
65997;BME280;52765;52.258;21.052;2023-03-19T13:22:22;100652.00;;;17.17;33.23
65997;BME280;52765;52.258;21.052;2023-03-19T13:24:49;100651.34;;;17.15;33.31
65997;BME280;52765;52.258;21.052;2023-03-19T13:27:32;100646.03;;;17.50;32.86
65997;BME280;52765;52.258;21.052;2023-03-19T13:30:00;100653.38;;;17.92;32.57
65997;BME280;52765;52.258;21.052;2023-03-19T13:32:40;100644.44;;;18.05;31.84
65997;BME280;52765;52.258;21.052;2023-03-19T13:35:26;100647.38;;;18.04;32.08
65997;BME280;52765;52.258;21.052;2023-03-19T13:40:54;100653.56;;;18.19;31.75
65997;BME280;52765;52.258;21.052;2023-03-19T13:54:04;100646.53;;;17.82;32.56
65997;BME280;52765;52.258;21.052;2023-03-19T13:57:01;100639.00;;;17.84;32.53
65997;BME280;52765;52.258;21.052;2023-03-19T14:01:59;100649.19;;;17.75;32.40
65997;BME280;52765;52.258;21.052;2023-03-19T14:04:28;100644.59;;;17.75;32.75
65997;BME280;52765;52.258;21.052;2023-03-19T14:09:44;100637.06;;;17.78;32.94
65997;BME280;52765;52.258;21.052;2023-03-19T14:17:45;100632.75;;;17.40;33.51
65997;BME280;52765;52.258;21.052;2023-03-19T14:25:21;100633.94;;;17.52;33.28
65997;BME280;52765;52.258;21.052;2023-03-19T14:27:48;100631.56;;;17.71;33.17
65997;BME280;52765;52.258;21.052;2023-03-19T14:32:54;100628.94;;;18.06;32.40